createdAt,value
2017-06-11T00:00:48.939Z,1014.93
2017-06-11T00:01:58.856Z,1014.92
2017-06-11T00:03:08.781Z,1014.92
2017-06-11T00:04:18.697Z,1014.93
2017-06-11T00:05:28.608Z,1014.92
2017-06-11T00:06:38.520Z,1014.89
2017-06-11T00:07:47.824Z,1014.88
2017-06-11T00:08:57.431Z,1014.87
2017-06-11T00:10:07.374Z,1014.88
2017-06-11T00:11:16.978Z,1014.89
2017-06-11T00:12:25.984Z,1014.88
2017-06-11T00:13:35.914Z,1014.88
2017-06-11T00:14:45.821Z,1014.84
2017-06-11T00:15:55.753Z,1014.85
2017-06-11T00:17:05.980Z,1014.83
2017-06-11T00:18:16.203Z,1014.84
2017-06-11T00:19:26.117Z,1014.85
2017-06-11T00:20:35.419Z,1014.87
2017-06-11T00:21:45.023Z,1014.85
2017-06-11T00:22:55.232Z,1014.88
2017-06-11T00:24:04.906Z,1014.88
2017-06-11T00:25:14.848Z,1014.88
2017-06-11T00:26:25.072Z,1014.87
2017-06-11T00:27:34.369Z,1014.92
2017-06-11T00:28:43.973Z,1014.91
2017-06-11T00:29:54.207Z,1014.92
2017-06-11T00:31:04.434Z,1014.91
2017-06-11T00:32:14.353Z,1014.89
2017-06-11T00:33:23.689Z,1014.86
2017-06-11T00:34:33.639Z,1014.83
2017-06-11T00:35:43.852Z,1014.84
2017-06-11T00:36:53.791Z,1014.84
2017-06-11T00:38:04.025Z,1014.87
2017-06-11T00:39:13.639Z,1014.84
2017-06-11T00:40:23.263Z,1014.85
2017-06-11T00:41:32.902Z,1014.77
2017-06-11T00:42:42.887Z,1014.79
2017-06-11T00:43:53.105Z,1014.79
2017-06-11T00:45:03.013Z,1014.78
2017-06-11T00:46:12.945Z,1014.8
2017-06-11T00:47:22.559Z,1014.84
2017-06-11T00:48:32.776Z,1014.83
2017-06-11T00:49:43.385Z,1014.83
2017-06-11T00:50:53.036Z,1014.81
2017-06-11T00:52:02.968Z,1014.83
2017-06-11T00:53:12.907Z,1014.8
2017-06-11T00:54:22.536Z,1014.85
2017-06-11T00:55:32.769Z,1014.89
2017-06-11T00:56:42.685Z,1014.92
2017-06-11T00:57:52.301Z,1014.95
2017-06-11T00:59:02.212Z,1014.95
2017-06-11T01:00:12.426Z,1014.92
2017-06-11T01:01:22.358Z,1014.96
2017-06-11T01:02:31.961Z,1014.9
2017-06-11T01:03:41.888Z,1014.87
2017-06-11T01:04:51.492Z,1014.85
2017-06-11T01:06:01.087Z,1014.86
2017-06-11T01:07:11.316Z,1014.84
2017-06-11T01:08:21.233Z,1014.83
2017-06-11T01:09:31.156Z,1014.85
2017-06-11T01:10:41.061Z,1014.82
2017-06-11T01:11:50.980Z,1014.79
2017-06-11T01:13:00.599Z,1014.85
2017-06-11T01:14:10.547Z,1014.85
2017-06-11T01:15:20.785Z,1014.83
2017-06-11T01:16:30.714Z,1014.83
2017-06-11T01:17:40.323Z,1014.81
2017-06-11T01:18:49.956Z,1014.83
2017-06-11T01:19:59.870Z,1014.84
2017-06-11T01:21:09.489Z,1014.8
2017-06-11T01:22:19.721Z,1014.82
2017-06-11T01:23:29.669Z,1014.8
2017-06-11T01:24:39.288Z,1014.82
2017-06-11T01:25:48.598Z,1014.79
2017-06-11T01:26:58.812Z,1014.79
2017-06-11T01:28:08.733Z,1014.75
2017-06-11T01:29:18.631Z,1014.76
2017-06-11T01:30:28.562Z,1014.75
2017-06-11T01:31:38.815Z,1014.73
2017-06-11T01:32:48.734Z,1014.74
2017-06-11T01:33:58.650Z,1014.69
2017-06-11T01:35:08.880Z,1014.69
2017-06-11T01:36:18.786Z,1014.69
2017-06-11T01:37:28.712Z,1014.69
2017-06-11T01:38:38.969Z,1014.74
2017-06-11T01:39:49.208Z,1014.72
2017-06-11T01:40:59.175Z,1014.74
2017-06-11T01:42:09.095Z,1014.74
2017-06-11T01:43:19.306Z,1014.7
2017-06-11T01:44:29.242Z,1014.73
2017-06-11T01:45:39.176Z,1014.71
2017-06-11T01:46:48.806Z,1014.7
2017-06-11T01:47:58.715Z,1014.69
2017-06-11T01:49:08.316Z,1014.68
2017-06-11T01:50:18.262Z,1014.69
2017-06-11T01:51:27.862Z,1014.7
2017-06-11T01:52:37.481Z,1014.67
2017-06-11T01:53:47.390Z,1014.67
2017-06-11T01:54:57.302Z,1014.67
2017-06-11T01:56:07.225Z,1014.7
2017-06-11T01:57:17.152Z,1014.67
2017-06-11T01:58:27.103Z,1014.69
2017-06-11T01:59:37.030Z,1014.68
2017-06-11T02:00:47.283Z,1014.69
2017-06-11T02:01:56.924Z,1014.68
2017-06-11T02:03:07.185Z,1014.68
2017-06-11T02:04:17.185Z,1014.64
2017-06-11T02:05:26.851Z,1014.63
2017-06-11T02:06:36.453Z,1014.59
2017-06-11T02:07:46.661Z,1014.61
2017-06-11T02:08:56.588Z,1014.58
2017-06-11T02:10:06.814Z,1014.6
2017-06-11T02:11:17.071Z,1014.59
2017-06-11T02:12:27.316Z,1014.57
2017-06-11T02:13:37.238Z,1014.59
2017-06-11T02:14:46.863Z,1014.59
2017-06-11T02:15:56.470Z,1014.59
2017-06-11T02:17:06.703Z,1014.54
2017-06-11T02:18:16.313Z,1014.53
2017-06-11T02:19:26.216Z,1014.54
2017-06-11T02:20:36.137Z,1014.54
2017-06-11T02:21:46.059Z,1014.53
2017-06-11T02:22:55.973Z,1014.54
2017-06-11T02:24:05.279Z,1014.56
2017-06-11T02:25:14.896Z,1014.54
2017-06-11T02:26:24.221Z,1014.54
2017-06-11T02:27:34.136Z,1014.52
2017-06-11T02:28:44.079Z,1014.54
2017-06-11T02:29:53.981Z,1014.54
2017-06-11T02:31:03.882Z,1014.52
2017-06-11T02:32:13.817Z,1014.49
2017-06-11T02:33:23.427Z,1014.49
2017-06-11T02:34:33.023Z,1014.48
2017-06-11T02:35:42.976Z,1014.51
2017-06-11T02:36:53.182Z,1014.5
2017-06-11T02:38:03.414Z,1014.49
2017-06-11T02:39:13.633Z,1014.5
2017-06-11T02:40:23.865Z,1014.47
2017-06-11T02:41:33.781Z,1014.48
2017-06-11T02:42:43.688Z,1014.44
2017-06-11T02:43:53.287Z,1014.47
2017-06-11T02:45:02.904Z,1014.48
2017-06-11T02:46:12.809Z,1014.44
2017-06-11T02:47:22.430Z,1014.47
2017-06-11T02:48:32.344Z,1014.49
2017-06-11T02:49:42.257Z,1014.51
2017-06-11T02:50:52.171Z,1014.54
2017-06-11T02:52:01.786Z,1014.58
2017-06-11T02:53:11.088Z,1014.58
2017-06-11T02:54:21.036Z,1014.58
2017-06-11T02:55:30.676Z,1014.61
2017-06-11T02:56:40.907Z,1014.64
2017-06-11T02:57:51.129Z,1014.62
2017-06-11T02:59:01.356Z,1014.64
2017-06-11T03:00:11.256Z,1014.63
2017-06-11T03:01:21.166Z,1014.63
2017-06-11T03:02:31.395Z,1014.59
2017-06-11T03:03:41.627Z,1014.59
2017-06-11T03:04:51.564Z,1014.57
2017-06-11T03:06:01.466Z,1014.6
2017-06-11T03:07:11.376Z,1014.64
2017-06-11T03:08:21.597Z,1014.62
2017-06-11T03:09:31.212Z,1014.59
2017-06-11T03:10:41.117Z,1014.59
2017-06-11T03:11:51.341Z,1014.6
2017-06-11T03:13:01.254Z,1014.61
2017-06-11T03:14:11.174Z,1014.62
2017-06-11T03:15:21.103Z,1014.56
2017-06-11T03:16:31.015Z,1014.58
2017-06-11T03:17:40.930Z,1014.6
2017-06-11T03:18:50.842Z,1014.55
2017-06-11T03:20:00.432Z,1014.53
2017-06-11T03:21:10.390Z,1014.5
2017-06-11T03:22:20.295Z,1014.47
2017-06-11T03:23:30.204Z,1014.47
2017-06-11T03:24:40.130Z,1014.46
2017-06-11T03:25:49.439Z,1014.46
2017-06-11T03:26:59.043Z,1014.42
2017-06-11T03:28:08.940Z,1014.39
2017-06-11T03:29:19.163Z,1014.41
2017-06-11T03:30:28.783Z,1014.37
2017-06-11T03:31:38.687Z,1014.37
2017-06-11T03:32:48.625Z,1014.35
2017-06-11T03:33:58.536Z,1014.37
2017-06-11T03:35:08.771Z,1014.33
2017-06-11T03:36:18.684Z,1014.38
2017-06-11T03:37:27.978Z,1014.39
2017-06-11T03:38:37.901Z,1014.39
2017-06-11T03:39:47.801Z,1014.38
2017-06-11T03:40:57.735Z,1014.4
2017-06-11T03:42:07.645Z,1014.38
2017-06-11T03:43:17.549Z,1014.39
2017-06-11T03:44:27.493Z,1014.38
2017-06-11T03:45:37.726Z,1014.38
2017-06-11T03:46:47.641Z,1014.4
2017-06-11T03:47:57.890Z,1014.4
2017-06-11T03:49:07.492Z,1014.4
2017-06-11T03:50:16.801Z,1014.39
2017-06-11T03:51:27.022Z,1014.37
2017-06-11T03:52:36.939Z,1014.42
2017-06-11T03:53:46.221Z,1014.45
2017-06-11T03:54:56.123Z,1014.45
2017-06-11T03:56:06.346Z,1014.52
2017-06-11T03:57:15.939Z,1014.55
2017-06-11T03:58:25.841Z,1014.53
2017-06-11T03:59:35.776Z,1014.48
2017-06-11T04:00:45.686Z,1014.44
2017-06-11T04:01:55.290Z,1014.41
2017-06-11T04:03:05.518Z,1014.4
2017-06-11T04:04:15.729Z,1014.39
2017-06-11T04:05:25.643Z,1014.41
2017-06-11T04:06:35.252Z,1014.4
2017-06-11T04:07:44.861Z,1014.37
2017-06-11T04:08:55.097Z,1014.39
2017-06-11T04:10:05.003Z,1014.35
2017-06-11T04:11:14.929Z,1014.35
2017-06-11T04:12:25.153Z,1014.35
2017-06-11T04:13:35.383Z,1014.37
2017-06-11T04:14:45.613Z,1014.39
2017-06-11T04:15:55.530Z,1014.41
2017-06-11T04:17:04.833Z,1014.44
2017-06-11T04:18:14.134Z,1014.44
2017-06-11T04:19:24.352Z,1014.45
2017-06-11T04:20:34.275Z,1014.4
2017-06-11T04:21:44.495Z,1014.39
2017-06-11T04:22:54.407Z,1014.38
2017-06-11T04:24:04.622Z,1014.38
2017-06-11T04:25:14.226Z,1014.38
2017-06-11T04:26:23.834Z,1014.37
2017-06-11T04:27:33.752Z,1014.33
2017-06-11T04:28:43.655Z,1014.34
2017-06-11T04:29:53.860Z,1014.33
2017-06-11T04:31:03.777Z,1014.33
2017-06-11T04:32:14.009Z,1014.33
2017-06-11T04:33:23.933Z,1014.29
2017-06-11T04:34:33.841Z,1014.27
2017-06-11T04:35:43.456Z,1014.25
2017-06-11T04:36:53.681Z,1014.19
2017-06-11T04:38:03.598Z,1014.29
2017-06-11T04:39:13.507Z,1014.28
2017-06-11T04:40:23.109Z,1014.31
2017-06-11T04:41:33.334Z,1014.31
2017-06-11T04:42:43.570Z,1014.32
2017-06-11T04:43:53.204Z,1014.32
2017-06-11T04:45:03.110Z,1014.35
2017-06-11T04:46:12.717Z,1014.37
2017-06-11T04:47:22.613Z,1014.35
2017-06-11T04:48:32.530Z,1014.36
2017-06-11T04:49:42.448Z,1014.35
2017-06-11T04:50:52.672Z,1014.32
2017-06-11T04:52:02.591Z,1014.28
2017-06-11T04:53:12.512Z,1014.25
2017-06-11T04:54:22.725Z,1014.25
2017-06-11T04:55:32.334Z,1014.27
2017-06-11T04:56:42.230Z,1014.24
2017-06-11T04:57:52.173Z,1014.23
2017-06-11T04:59:02.224Z,1014.23
2017-06-11T05:00:12.267Z,1014.25
2017-06-11T05:01:21.934Z,1014.2
2017-06-11T05:02:31.909Z,1014.21
2017-06-11T05:03:41.512Z,1014.21
2017-06-11T05:04:51.608Z,1014.16
2017-06-11T05:06:01.395Z,1014.18
2017-06-11T05:07:11.655Z,1014.14
2017-06-11T05:08:21.877Z,1014.12
2017-06-11T05:09:32.659Z,1014.13
2017-06-11T05:10:42.604Z,1014.18
2017-06-11T05:11:52.608Z,1014.14
2017-06-11T05:13:02.836Z,1014.18
2017-06-11T05:14:13.165Z,1014.18
2017-06-11T05:15:23.474Z,1014.19
2017-06-11T05:16:33.388Z,1014.2
2017-06-11T05:17:43.400Z,1014.22
2017-06-11T05:18:53.333Z,1014.29
2017-06-11T05:20:02.638Z,1014.3
2017-06-11T05:21:12.546Z,1014.27
2017-06-11T05:22:22.480Z,1014.31
2017-06-11T05:23:32.700Z,1014.31
2017-06-11T05:24:42.608Z,1014.25
2017-06-11T05:25:52.516Z,1014.3
2017-06-11T05:27:02.442Z,1014.27
2017-06-11T05:28:12.666Z,1014.24
2017-06-11T05:29:23.138Z,1014.25
2017-06-11T05:30:33.045Z,1014.22
2017-06-11T05:31:42.981Z,1014.21
2017-06-11T05:32:53.602Z,1014.24
2017-06-11T05:34:02.913Z,1014.24
2017-06-11T05:35:13.172Z,1014.21
2017-06-11T05:36:23.239Z,1014.23
2017-06-11T05:37:32.531Z,1014.21
2017-06-11T05:38:43.132Z,1014.24
2017-06-11T05:39:53.046Z,1014.22
2017-06-11T05:41:03.320Z,1014.23
2017-06-11T05:42:14.545Z,1014.25
2017-06-11T05:43:25.234Z,1014.31
2017-06-11T05:44:34.858Z,1014.33
2017-06-11T05:45:44.773Z,1014.3
2017-06-11T05:46:54.691Z,1014.31
2017-06-11T05:48:04.918Z,1014.33
2017-06-11T05:49:14.218Z,1014.31
2017-06-11T05:50:24.438Z,1014.32
2017-06-11T05:51:34.662Z,1014.29
2017-06-11T05:52:44.569Z,1014.31
2017-06-11T05:53:54.168Z,1014.26
2017-06-11T05:55:04.403Z,1014.29
2017-06-11T05:56:14.008Z,1014.32
2017-06-11T05:57:23.934Z,1014.35
2017-06-11T05:58:34.162Z,1014.33
2017-06-11T05:59:44.061Z,1014.31
2017-06-11T06:00:53.979Z,1014.3
2017-06-11T06:02:03.278Z,1014.34
2017-06-11T06:03:13.496Z,1014.36
2017-06-11T06:04:23.715Z,1014.35
2017-06-11T06:05:33.645Z,1014.32
2017-06-11T06:06:43.569Z,1014.35
2017-06-11T06:07:52.880Z,1014.33
2017-06-11T06:09:02.799Z,1014.3
2017-06-11T06:10:12.726Z,1014.25
2017-06-11T06:11:22.328Z,1014.26
2017-06-11T06:12:32.258Z,1014.23
2017-06-11T06:13:42.506Z,1014.21
2017-06-11T06:14:52.156Z,1014.18
2017-06-11T06:16:01.479Z,1014.23
2017-06-11T06:17:11.701Z,1014.22
2017-06-11T06:18:21.919Z,1014.19
2017-06-11T06:19:32.123Z,1014.17
2017-06-11T06:20:42.022Z,1014.21
2017-06-11T06:21:51.629Z,1014.16
2017-06-11T06:23:01.547Z,1014.18
2017-06-11T06:24:11.467Z,1014.22
2017-06-11T06:25:21.689Z,1014.17
2017-06-11T06:26:31.927Z,1014.19
2017-06-11T06:27:41.535Z,1014.16
2017-06-11T06:28:51.464Z,1014.19
2017-06-11T06:30:01.685Z,1014.19
2017-06-11T06:31:11.604Z,1014.15
2017-06-11T06:32:21.523Z,1014.11
2017-06-11T06:33:31.452Z,1014.12
2017-06-11T06:34:41.374Z,1014.1
2017-06-11T06:35:51.583Z,1014.11
2017-06-11T06:37:01.508Z,1014.13
2017-06-11T06:38:11.416Z,1014.12
2017-06-11T06:39:21.026Z,1014.08
2017-06-11T06:40:30.955Z,1014.07
2017-06-11T06:41:40.560Z,1014.01
2017-06-11T06:42:50.169Z,1014.02
2017-06-11T06:43:59.786Z,1013.99
2017-06-11T06:45:09.705Z,1013.98
2017-06-11T06:46:19.922Z,1013.92
2017-06-11T06:47:29.540Z,1013.94
2017-06-11T06:48:39.476Z,1013.99
2017-06-11T06:49:49.705Z,1013.98
2017-06-11T06:50:59.939Z,1013.97
2017-06-11T06:52:10.164Z,1013.92
2017-06-11T06:53:20.090Z,1013.94
2017-06-11T06:54:30.342Z,1013.9
2017-06-11T06:55:40.263Z,1013.88
2017-06-11T06:56:49.876Z,1013.88
2017-06-11T06:58:00.121Z,1013.87
2017-06-11T06:59:10.360Z,1013.85
2017-06-11T07:00:20.278Z,1013.83
2017-06-11T07:01:30.217Z,1013.82
2017-06-11T07:02:40.145Z,1013.86
2017-06-11T07:03:50.086Z,1013.81
2017-06-11T07:04:59.101Z,1013.79
2017-06-11T07:06:09.004Z,1013.83
2017-06-11T07:07:18.919Z,1013.85
2017-06-11T07:08:28.833Z,1013.81
2017-06-11T07:09:38.761Z,1013.79
2017-06-11T07:10:48.370Z,1013.81
2017-06-11T07:11:57.985Z,1013.79
2017-06-11T07:13:08.270Z,1013.8
2017-06-11T07:14:18.513Z,1013.83
2017-06-11T07:15:28.435Z,1013.83
2017-06-11T07:16:37.748Z,1013.82
2017-06-11T07:17:47.659Z,1013.81
2017-06-11T07:18:57.575Z,1013.79
2017-06-11T07:20:07.190Z,1013.82
2017-06-11T07:21:17.101Z,1013.8
2017-06-11T07:22:27.090Z,1013.81
2017-06-11T07:23:37.014Z,1013.8
2017-06-11T07:24:47.243Z,1013.81
2017-06-11T07:25:57.166Z,1013.8
2017-06-11T07:27:07.111Z,1013.77
2017-06-11T07:28:17.026Z,1013.79
2017-06-11T07:29:26.960Z,1013.82
2017-06-11T07:30:36.564Z,1013.82
2017-06-11T07:31:46.163Z,1013.89
2017-06-11T07:32:56.428Z,1013.8
2017-06-11T07:34:06.338Z,1013.82
2017-06-11T07:35:15.650Z,1013.8
2017-06-11T07:36:25.887Z,1013.83
2017-06-11T07:37:35.798Z,1013.82
2017-06-11T07:38:45.402Z,1013.77
2017-06-11T07:39:55.362Z,1013.81
2017-06-11T07:41:05.619Z,1013.74
2017-06-11T07:42:15.593Z,1013.73
2017-06-11T07:43:25.548Z,1013.7
2017-06-11T07:44:34.866Z,1013.7
2017-06-11T07:45:44.810Z,1013.67
2017-06-11T07:46:54.811Z,1013.66
2017-06-11T07:48:05.070Z,1013.69
2017-06-11T07:49:15.071Z,1013.65
2017-06-11T07:50:25.052Z,1013.62
2017-06-11T07:51:35.058Z,1013.62
2017-06-11T07:52:44.417Z,1013.58
2017-06-11T07:53:54.706Z,1013.56
2017-06-11T07:55:04.670Z,1013.58
2017-06-11T07:56:14.941Z,1013.57
2017-06-11T07:57:24.942Z,1013.56
2017-06-11T07:58:34.997Z,1013.51
2017-06-11T07:59:45.278Z,1013.51
2017-06-11T08:00:54.998Z,1013.52
2017-06-11T08:02:04.948Z,1013.54
2017-06-11T08:03:14.270Z,1013.48
2017-06-11T08:04:23.321Z,1013.52
2017-06-11T08:05:33.611Z,1013.5
2017-06-11T08:06:43.598Z,1013.53
2017-06-11T08:07:53.874Z,1013.49
2017-06-11T08:09:03.846Z,1013.51
2017-06-11T08:10:13.834Z,1013.51
2017-06-11T08:11:23.795Z,1013.48
2017-06-11T08:12:34.174Z,1013.5
2017-06-11T08:13:43.813Z,1013.46
2017-06-11T08:14:53.854Z,1013.47
2017-06-11T08:16:04.129Z,1013.49
2017-06-11T08:17:14.088Z,1013.49
2017-06-11T08:18:24.082Z,1013.41
2017-06-11T08:19:34.378Z,1013.42
2017-06-11T08:20:44.521Z,1013.41
2017-06-11T08:21:54.559Z,1013.4
2017-06-11T08:23:04.933Z,1013.38
2017-06-11T08:24:14.570Z,1013.38
2017-06-11T08:25:24.543Z,1013.37
2017-06-11T08:26:35.219Z,1013.34
2017-06-11T08:27:45.511Z,1013.33
2017-06-11T08:28:55.138Z,1013.26
2017-06-11T08:30:04.521Z,1013.29
2017-06-11T08:31:14.171Z,1013.27
2017-06-11T08:32:23.836Z,1013.24
2017-06-11T08:33:33.789Z,1013.24
2017-06-11T08:34:43.576Z,1013.24
2017-06-11T08:35:53.216Z,1013.21
2017-06-11T08:37:03.463Z,1013.22
2017-06-11T08:38:13.393Z,1013.22
2017-06-11T08:39:23.373Z,1013.24
2017-06-11T08:40:33.349Z,1013.24
2017-06-11T08:41:43.598Z,1013.2
2017-06-11T08:42:53.233Z,1013.22
2017-06-11T08:44:02.884Z,1013.19
2017-06-11T08:45:13.383Z,1013.23
2017-06-11T08:46:23.620Z,1013.22
2017-06-11T08:47:33.940Z,1013.17
2017-06-11T08:48:43.880Z,1013.24
2017-06-11T08:49:54.108Z,1013.21
2017-06-11T08:51:04.048Z,1013.24
2017-06-11T08:52:14.295Z,1013.19
2017-06-11T08:53:24.231Z,1013.14
2017-06-11T08:54:33.549Z,1013.19
2017-06-11T08:55:43.492Z,1013.12
2017-06-11T08:56:53.149Z,1013.15
2017-06-11T08:58:02.782Z,1013.16
2017-06-11T08:59:13.028Z,1013.19
2017-06-11T09:00:24.007Z,1013.12
2017-06-11T09:01:34.185Z,1013.1
2017-06-11T09:02:43.834Z,1013.05
2017-06-11T09:03:53.487Z,1013.04
2017-06-11T09:05:04.124Z,1013.05
2017-06-11T09:06:13.471Z,1013.1
2017-06-11T09:07:23.416Z,1013.04
2017-06-11T09:08:33.648Z,1013.01
2017-06-11T09:09:43.561Z,1013.03
2017-06-11T09:10:53.479Z,1013.06
2017-06-11T09:12:03.715Z,1013.04
2017-06-11T09:13:13.015Z,1012.99
2017-06-11T09:14:23.233Z,1012.97
2017-06-11T09:15:33.164Z,1012.92
2017-06-11T09:16:43.129Z,1012.96
2017-06-11T09:17:52.761Z,1012.83
2017-06-11T09:19:02.985Z,1012.85
2017-06-11T09:20:12.920Z,1012.89
2017-06-11T09:21:23.194Z,1012.87
2017-06-11T09:22:33.129Z,1012.87
2017-06-11T09:23:43.061Z,1012.85
2017-06-11T09:24:52.984Z,1012.81
2017-06-11T09:26:02.595Z,1012.79
2017-06-11T09:27:12.832Z,1012.73
2017-06-11T09:28:22.449Z,1012.78
2017-06-11T09:29:32.692Z,1012.74
2017-06-11T09:30:42.981Z,1012.77
2017-06-11T09:31:53.577Z,1012.72
2017-06-11T09:33:03.197Z,1012.71
2017-06-11T09:34:12.821Z,1012.72
2017-06-11T09:35:22.779Z,1012.72
2017-06-11T09:36:32.697Z,1012.68
2017-06-11T09:37:42.935Z,1012.64
2017-06-11T09:38:52.901Z,1012.58
2017-06-11T09:40:02.512Z,1012.62
2017-06-11T09:41:12.742Z,1012.61
2017-06-11T09:42:23.372Z,1012.58
2017-06-11T09:43:33.346Z,1012.62
2017-06-11T09:44:43.285Z,1012.62
2017-06-11T09:45:53.241Z,1012.53
2017-06-11T09:47:02.855Z,1012.51
2017-06-11T09:48:12.483Z,1012.53
2017-06-11T09:49:22.721Z,1012.49
2017-06-11T09:50:32.951Z,1012.45
2017-06-11T09:51:42.888Z,1012.48
2017-06-11T09:52:53.554Z,1012.41
2017-06-11T09:54:06.266Z,1012.38
2017-06-11T09:55:16.491Z,1012.43
2017-06-11T09:56:26.404Z,1012.43
2017-06-11T09:57:36.371Z,1012.46
2017-06-11T09:58:45.982Z,1012.39
2017-06-11T09:59:55.915Z,1012.38
2017-06-11T10:01:05.514Z,1012.34
2017-06-11T10:02:15.426Z,1012.33
2017-06-11T10:03:25.673Z,1012.32
2017-06-11T10:04:35.899Z,1012.33
2017-06-11T10:05:45.511Z,1012.34
2017-06-11T10:06:55.739Z,1012.31
2017-06-11T10:08:05.979Z,1012.29
2017-06-11T10:09:16.218Z,1012.29
2017-06-11T10:10:26.152Z,1012.26
2017-06-11T10:11:35.765Z,1012.29
2017-06-11T10:12:45.701Z,1012.29
2017-06-11T10:13:55.936Z,1012.29
2017-06-11T10:15:05.559Z,1012.3
2017-06-11T10:16:15.811Z,1012.27
2017-06-11T10:17:25.430Z,1012.27
2017-06-11T10:18:35.664Z,1012.23
2017-06-11T10:19:45.590Z,1012.26
2017-06-11T10:20:55.203Z,1012.18
2017-06-11T10:22:04.511Z,1012.17
2017-06-11T10:23:14.437Z,1012.2
2017-06-11T10:24:24.041Z,1012.2
2017-06-11T10:25:34.280Z,1012.18
2017-06-11T10:26:43.583Z,1012.19
2017-06-11T10:27:52.879Z,1012.11
2017-06-11T10:29:03.103Z,1012.11
2017-06-11T10:30:13.332Z,1012.11
2017-06-11T10:31:22.939Z,1012.13
2017-06-11T10:32:33.190Z,1012.15
2017-06-11T10:33:42.537Z,1012.14
2017-06-11T10:34:52.151Z,1012.07
2017-06-11T10:36:01.758Z,1012.02
2017-06-11T10:37:11.373Z,1012
2017-06-11T10:38:20.688Z,1011.96
2017-06-11T10:39:30.613Z,1011.91
2017-06-11T10:40:40.840Z,1011.88
2017-06-11T10:41:50.471Z,1011.88
2017-06-11T10:42:59.835Z,1011.81
2017-06-11T10:44:09.743Z,1011.82
2017-06-11T10:45:19.967Z,1011.77
2017-06-11T10:46:29.876Z,1011.8
2017-06-11T10:47:39.796Z,1011.77
2017-06-11T10:48:49.429Z,1011.77
2017-06-11T10:49:59.349Z,1011.75
2017-06-11T10:51:09.270Z,1011.73
2017-06-11T10:52:19.178Z,1011.73
2017-06-11T10:53:29.092Z,1011.68
2017-06-11T10:54:39.310Z,1011.62
2017-06-11T10:55:49.261Z,1011.59
2017-06-11T10:56:59.166Z,1011.59
2017-06-11T10:58:09.081Z,1011.61
2017-06-11T10:59:18.994Z,1011.58
2017-06-11T11:00:28.600Z,1011.58
2017-06-11T11:01:38.830Z,1011.55
2017-06-11T11:02:48.754Z,1011.55
2017-06-11T11:03:58.365Z,1011.56
2017-06-11T11:05:07.994Z,1011.51
2017-06-11T11:06:18.220Z,1011.55
2017-06-11T11:07:27.825Z,1011.5
2017-06-11T11:08:38.061Z,1011.48
2017-06-11T11:09:48.295Z,1011.47
2017-06-11T11:10:58.223Z,1011.48
2017-06-11T11:12:07.832Z,1011.41
2017-06-11T11:13:17.740Z,1011.47
2017-06-11T11:14:27.340Z,1011.45
2017-06-11T11:15:36.943Z,1011.43
2017-06-11T11:16:46.859Z,1011.37
2017-06-11T11:17:56.459Z,1011.35
2017-06-11T11:19:06.403Z,1011.37
2017-06-11T11:20:16.045Z,1011.33
2017-06-11T11:21:26.262Z,1011.31
2017-06-11T11:22:36.188Z,1011.3
2017-06-11T11:23:46.104Z,1011.24
2017-06-11T11:24:55.412Z,1011.21
2017-06-11T11:26:05.642Z,1011.19
2017-06-11T11:27:15.557Z,1011.19
2017-06-11T11:28:25.778Z,1011.19
2017-06-11T11:29:35.699Z,1011.19
2017-06-11T11:30:45.621Z,1011.13
2017-06-11T11:31:55.858Z,1011.11
2017-06-11T11:33:05.773Z,1011.11
2017-06-11T11:34:15.734Z,1011.08
2017-06-11T11:35:25.659Z,1011.11
2017-06-11T11:36:35.579Z,1011.06
2017-06-11T11:37:45.482Z,1011.1
2017-06-11T11:38:55.694Z,1011.1
2017-06-11T11:40:04.983Z,1011.08
2017-06-11T11:41:14.599Z,1011.01
2017-06-11T11:42:24.504Z,1011.11
2017-06-11T11:43:34.733Z,1011.04
2017-06-11T11:44:44.643Z,1010.95
2017-06-11T11:45:54.873Z,1010.88
2017-06-11T11:47:04.799Z,1010.87
2017-06-11T11:48:14.424Z,1010.86
2017-06-11T11:49:24.041Z,1010.85
2017-06-11T11:50:34.026Z,1010.81
2017-06-11T11:51:43.933Z,1010.79
2017-06-11T11:52:54.142Z,1010.7
2017-06-11T11:54:04.375Z,1010.72
2017-06-11T11:55:14.595Z,1010.66
2017-06-11T11:56:24.536Z,1010.69
2017-06-11T11:57:34.745Z,1010.66
2017-06-11T11:58:44.658Z,1010.66
2017-06-11T11:59:54.871Z,1010.68
2017-06-11T12:01:05.093Z,1010.69
2017-06-11T12:02:14.421Z,1010.66
2017-06-11T12:03:23.411Z,1010.6
2017-06-11T12:04:33.644Z,1010.62
2017-06-11T12:05:43.579Z,1010.62
2017-06-11T12:06:53.186Z,1010.62
2017-06-11T12:08:03.107Z,1010.59
2017-06-11T12:09:13.014Z,1010.57
2017-06-11T12:10:22.928Z,1010.54
2017-06-11T12:11:33.154Z,1010.51
2017-06-11T12:12:42.767Z,1010.47
2017-06-11T12:13:52.376Z,1010.45
2017-06-11T12:15:01.990Z,1010.44
2017-06-11T12:16:12.215Z,1010.43
2017-06-11T12:17:22.442Z,1010.35
2017-06-11T12:18:32.378Z,1010.34
2017-06-11T12:19:42.298Z,1010.36
2017-06-11T12:20:52.508Z,1010.29
2017-06-11T12:22:01.813Z,1010.25
2017-06-11T12:23:12.041Z,1010.3
2017-06-11T12:24:22.257Z,1010.29
2017-06-11T12:25:32.176Z,1010.26
2017-06-11T12:26:41.783Z,1010.2
2017-06-11T12:27:52.068Z,1010.22
2017-06-11T12:29:01.687Z,1010.22
2017-06-11T12:30:11.313Z,1010.19
2017-06-11T12:31:21.523Z,1010.22
2017-06-11T12:32:31.438Z,1010.21
2017-06-11T12:33:41.044Z,1010.2
2017-06-11T12:34:50.641Z,1010.19
2017-06-11T12:36:00.548Z,1010.19
2017-06-11T12:37:10.186Z,1010.18
2017-06-11T12:38:19.783Z,1010.16
2017-06-11T12:39:29.396Z,1010.1
2017-06-11T12:40:38.687Z,1010.18
2017-06-11T12:41:48.310Z,1010.07
2017-06-11T12:42:57.651Z,1010.08
2017-06-11T12:44:07.873Z,1010.09
2017-06-11T12:45:17.499Z,1010.02
2017-06-11T12:46:27.115Z,1009.95
2017-06-11T12:47:36.724Z,1009.97
2017-06-11T12:48:46.934Z,1009.86
2017-06-11T12:49:56.836Z,1009.95
2017-06-11T12:51:06.740Z,1009.91
2017-06-11T12:52:16.341Z,1009.87
2017-06-11T12:53:26.283Z,1009.92
2017-06-11T12:54:35.909Z,1009.92
2017-06-11T12:55:45.521Z,1009.88
2017-06-11T12:56:55.143Z,1009.86
2017-06-11T12:58:05.378Z,1009.84
2017-06-11T12:59:14.991Z,1009.77
2017-06-11T13:00:24.599Z,1009.7
2017-06-11T13:01:33.900Z,1009.72
2017-06-11T13:02:43.845Z,1009.7
2017-06-11T13:03:54.063Z,1009.72
2017-06-11T13:05:03.989Z,1009.71
2017-06-11T13:06:13.913Z,1009.67
2017-06-11T13:07:23.210Z,1009.7
2017-06-11T13:08:32.833Z,1009.67
2017-06-11T13:09:42.135Z,1009.67
2017-06-11T13:10:51.772Z,1009.65
2017-06-11T13:12:01.687Z,1009.57
2017-06-11T13:13:11.310Z,1009.6
2017-06-11T13:14:20.911Z,1009.64
2017-06-11T13:15:30.845Z,1009.6
2017-06-11T13:16:41.059Z,1009.54
2017-06-11T13:17:50.659Z,1009.56
2017-06-11T13:19:00.560Z,1009.51
2017-06-11T13:20:10.192Z,1009.44
2017-06-11T13:21:20.034Z,1009.43
2017-06-11T13:22:29.944Z,1009.47
2017-06-11T13:23:39.554Z,1009.42
2017-06-11T13:24:49.479Z,1009.37
2017-06-11T13:25:59.074Z,1009.38
2017-06-11T13:27:08.999Z,1009.36
2017-06-11T13:28:18.894Z,1009.34
2017-06-11T13:29:29.194Z,1009.3
2017-06-11T13:30:39.110Z,1009.26
2017-06-11T13:31:49.326Z,1009.21
2017-06-11T13:32:58.928Z,1009.21
2017-06-11T13:34:09.169Z,1009.31
2017-06-11T13:35:19.080Z,1009.27
2017-06-11T13:36:28.981Z,1009.21
2017-06-11T13:37:38.896Z,1009.19
2017-06-11T13:38:49.125Z,1009.12
2017-06-11T13:39:58.728Z,1009.13
2017-06-11T13:41:08.943Z,1009.07
2017-06-11T13:42:18.852Z,1009.09
2017-06-11T13:43:28.451Z,1009.06
2017-06-11T13:44:38.665Z,1009
2017-06-11T13:45:47.959Z,1008.96
2017-06-11T13:46:58.182Z,1008.97
2017-06-11T13:48:07.787Z,1008.96
2017-06-11T13:49:17.716Z,1008.99
2017-06-11T13:50:27.318Z,1008.93
2017-06-11T13:51:37.226Z,1008.94
2017-06-11T13:52:47.444Z,1008.93
2017-06-11T13:53:57.658Z,1008.92
2017-06-11T13:55:07.885Z,1008.93
2017-06-11T13:56:18.099Z,1008.97
2017-06-11T13:57:28.306Z,1008.91
2017-06-11T13:58:38.512Z,1008.82
2017-06-11T13:59:47.806Z,1008.84
2017-06-11T14:00:57.722Z,1008.88
2017-06-11T14:02:07.325Z,1008.83
2017-06-11T14:03:17.361Z,1008.83
2017-06-11T14:04:27.596Z,1008.78
2017-06-11T14:05:37.869Z,1008.8
2017-06-11T14:06:47.886Z,1008.78
2017-06-11T14:07:58.827Z,1008.75
2017-06-11T14:09:09.079Z,1008.7